Station: Tibooburra Airport  

  Atmospheric Gas Attenuation - ITU Rec 676-11   ----------------- dB/100km -----------------
Date Time Temp RH % AH g/m3 Dew Point Wind Direction Speed kph Gust kph Barometer mB Rainfall Since 9am 24GHz 47GHz 76GHz 122GHz 134GHz 241GHz
08/05 12:30 15.9 47 6.36 4.6 24 33 1028.4 0 14.7 22.4 31.0 80.7 69.1 236.0
08/05 12:20 16.2 48 6.62 5.2 22 26 1028.5 0 15.3 22.7 31.8 82.9 72.0 246.0
08/05 12:10 16.2 48 6.62 5.2 17 20 1028.8 0 15.3 22.8 31.8 82.9 72.0 246.1
08/05 12:00 15.7 48 6.42 4.7 24 33 1028.9 0 14.9 22.6 31.3 81.5 70.0 239.2
08/05 11:50 15.8 49 6.6 5.1 24 35 1029.2 0 15.2 22.8 31.9 83.2 72.1 246.5
08/05 11:40 15.5 49 6.48 4.8 20 22 1029.4 0 15.0 22.7 31.6 82.3 71.0 242.4
08/05 11:30 15.2 50 6.49 4.9 22 30 1029.5 0 15.0 22.8 31.8 82.7 71.4 243.7
08/05 11:20 14.9 49 6.24 4.3 20 22 1029.6 0 14.5 22.5 31.0 80.6 68.6 234.0
08/05 11:10 15 50 6.41 4.7 22 26 1029.8 0 14.9 22.8 31.6 82.2 70.6 241.0
08/05 11:00 14.6 51 6.38 4.6 26 33 1029.9 0 14.8 22.8 31.6 82.3 70.6 240.9
08/05 10:50 14.4 52 6.43 4.7 26 33 1029.9 0 14.9 23.0 31.9 83.0 71.4 243.7
08/05 10:40 14.4 53 6.55 5 26 33 1029.9 0 15.2 23.1 32.3 84.2 72.8 248.8
08/05 10:30 14.3 53 6.51 4.9 24 33 1030 0 15.1 23.1 32.2 83.9 72.5 247.4
08/05 10:20 13.7 53 6.28 4.3 24 30 1030 0 14.7 22.9 31.6 82.3 70.2 239.3
08/05 10:10 13.6 53 6.24 4.2 26 32 1030 0 14.6 22.9 31.5 82.0 69.8 237.9
08/05 10:00 13.7 53 6.28 4.3 22 30 1029.9 0 14.7 22.9 31.6 82.2 70.2 239.3
08/05 09:50 13.3 55 6.35 4.5 20 26 1029.8 0 14.8 23.1 32.0 83.3 71.4 243.5
08/05 09:40 13 55 6.24 4.2 20 24 1029.9 0 14.6 23.0 31.7 82.6 70.3 239.7
08/05 09:30 12.6 55 6.09 3.8 20 30 1030 0 14.3 22.9 31.3 81.5 68.8 234.4
08/05 09:20 12.3 54 5.86 3.3 24 26 1029.9 0 13.8 22.6 30.6 79.5 66.2 225.3
08/05 09:10 12.1 54 5.79 3.1 20 24 1029.8 0 13.7 22.6 30.4 79.0 65.5 222.8
08/05 09:00 11.7 54 5.65 2.7 20 28 1029.8 0 13.4 22.5 30.0 78.0 64.1 217.9
08/05 08:50 11.6 53 5.51 2.4 17 20 1029.7 0 13.1 22.3 29.5 76.7 62.5 212.1
08/05 08:40 11 54 5.41 2.1 17 20 1029.7 0 12.9 22.3 29.4 76.3 61.7 209.4
08/05 08:30 10.5 55 5.34 1.9 15 19 1029.6 0 12.8 22.3 29.3 76.0 61.3 207.6
08/05 08:20 9.9 56 5.23 1.5 17 20 1029.5 0 12.6 22.3 29.1 75.5 60.4 204.4
08/05 08:10 9.5 58 5.28 1.7 15 17 1029.5 0 12.7 22.4 29.4 76.4 61.3 207.6
08/05 08:00 9.1 59 5.24 1.5 13 17 1029.5 0 12.6 22.5 29.4 76.3 61.1 206.9
08/05 07:50 8.6 60 5.16 1.3 13 15 1029.3 0 12.5 22.5 29.3 76.0 60.5 204.6
08/05 07:40 8.3 61 5.14 1.2 15 17 1029.2 0 12.4 22.5 29.3 76.1 60.4 204.5
08/05 07:30 7.7 64 5.19 1.3 13 15 1029 0 12.6 22.7 29.7 77.1 61.5 208.2
08/05 07:20 7.4 65 5.17 1.3 13 13 1028.8 0 12.5 22.8 29.7 77.2 61.5 208.0
08/05 07:10 7.3 64 5.06 1 13 15 1028.8 0 12.3 22.6 29.3 76.2 60.2 203.4
08/05 07:00 7.3 65 5.14 1.2 13 15 1028.6 0 12.5 22.7 29.6 77.0 61.2 206.9
08/05 06:50 7.2 65 5.1 1.1 13 15 1028.5 0 12.4 22.7 29.5 76.7 60.7 205.4
08/05 06:40 6.9 67 5.16 1.2 13 13 1028.4 0 12.5 22.8 29.9 77.6 61.7 208.8
08/05 06:30 6.8 68 5.2 1.3 9 13 1028.4 0 12.6 22.9 30.0 78.1 62.3 210.9
08/05 06:20 6.7 68 5.17 1.2 9 11 1028.2 0 12.5 22.9 30.0 77.8 62.0 209.8
08/05 06:10 6.7 68 5.17 1.2 9 9 1028.1 0 12.5 22.9 30.0 77.8 62.0 209.7
08/05 06:00 7.2 65 5.1 1.1 9 11 1028.1 0 12.4 22.7 29.5 76.6 60.7 205.3
08/05 05:50 7.5 63 5.04 0.9 9 11 1028.1 0 12.2 22.5 29.2 75.7 59.7 201.9
08/05 05:40 7.6 63 5.08 1 9 11 1028.2 0 12.3 22.5 29.3 76.0 60.2 203.4
08/05 05:30 7.6 63 5.08 1 9 13 1028.1 0 12.3 22.5 29.3 76.0 60.2 203.4
08/05 05:20 7.7 63 5.11 1.1 11 15 1028 0 12.4 22.6 29.4 76.2 60.5 204.4
08/05 05:10 7.7 62 5.03 0.9 9 11 1028 0 12.2 22.4 29.0 75.4 59.5 200.9
08/05 05:00 7.8 61 4.98 0.8 9 13 1028 0 12.1 22.3 28.8 74.8 58.8 198.5
08/05 04:50 8 61 5.05 1 9 11 1027.9 0 12.2 22.4 29.0 75.3 59.5 201.0
08/05 04:40 8.1 60 4.99 0.8 9 9 1028 0 12.1 22.3 28.8 74.6 58.7 198.2
08/05 04:30 8.2 60 5.03 0.9 11 15 1028 0 12.2 22.3 28.9 74.9 59.1 199.7
08/05 04:20 8.3 59 4.97 0.8 11 13 1027.9 0 12.1 22.2 28.6 74.2 58.3 196.8
08/05 04:10 8.3 59 4.97 0.8 13 15 1027.9 0 12.1 22.2 28.6 74.2 58.3 196.8
08/05 04:00 8.4 58 4.92 0.6 13 17 1027.8 0 12.0 22.1 28.4 73.6 57.6 194.3
08/05 03:50 8.5 58 4.95 0.7 13 17 1027.8 0 12.0 22.1 28.5 73.8 57.9 195.4
08/05 03:40 8.7 57 4.93 0.7 15 19 1027.8 0 12.0 22.0 28.3 73.5 57.5 194.0
08/05 03:30 8.7 57 4.93 0.7 15 19 1027.9 0 12.0 22.0 28.3 73.5 57.5 194.1
08/05 03:20 8.7 56 4.84 0.4 17 17 1027.8 0 11.8 21.9 28.0 72.6 56.3 190.1
08/05 03:10 8.8 56 4.88 0.5 19 22 1027.7 0 11.9 21.9 28.1 72.9 56.8 191.6
08/05 03:00 8.6 57 4.9 0.6 19 20 1027.7 0 11.9 22.0 28.2 73.2 57.2 193.0
08/05 02:50 8.8 56 4.88 0.5 19 20 1027.8 0 11.9 21.9 28.1 72.9 56.8 191.6
08/05 02:40 9 55 4.85 0.5 19 22 1027.9 0 11.8 21.8 27.9 72.4 56.3 189.9
08/05 02:30 8.9 55 4.82 0.4 19 22 1027.9 0 11.7 21.8 27.8 72.2 56.0 188.8
08/05 02:20 9.1 54 4.79 0.3 19 20 1028 0 11.7 21.7 27.7 71.7 55.5 187.1
08/05 02:10 9.3 52 4.67 0 20 24 1028 0 11.4 21.5 27.2 70.4 53.9 181.5
08/05 02:00 9.5 52 4.73 0.1 22 28 1028.3 0 11.5 21.6 27.3 70.8 54.5 183.6
08/05 01:50 9.5 51 4.64 -0.1 20 24 1028.1 0 11.3 21.4 27.0 69.9 53.4 179.8
08/05 01:40 9.5 51 4.64 -0.1 19 22 1028.1 0 11.3 21.4 27.0 69.9 53.4 179.8
08/05 01:30 9.6 50 4.58 -0.3 22 28 1028.1 0 11.2 21.3 26.7 69.2 52.6 177.0
08/05 01:20 9.7 50 4.61 -0.2 20 24 1028.1 0 11.3 21.3 26.8 69.4 52.9 178.1
08/05 01:10 9.8 49 4.55 -0.4 22 26 1028.1 0 11.1 21.2 26.6 68.8 52.1 175.3
08/05 01:00 9.9 49 4.58 -0.3 22 30 1028 0 11.2 21.2 26.6 69.0 52.4 176.3
08/05 00:50 9.8 49 4.55 -0.4 22 24 1028 0 11.1 21.2 26.6 68.8 52.1 175.3
08/05 00:40 9.8 49 4.55 -0.4 20 24 1027.9 0 11.1 21.2 26.5 68.8 52.1 175.3
08/05 00:20 10.1 48 4.54 -0.4 20 24 1028.1 0 11.1 21.1 26.4 68.4 51.8 174.2
08/05 00:10 10.1 47 4.45 -0.7 20 22 1028.2 0 10.9 21.0 26.1 67.6 50.7 170.5
08/05 00:00 10.1 47 4.45 -0.7 20 28 1028.3 0 10.9 21.0 26.1 67.6 50.7 170.5
07/05 23:50 10 46 4.32 -1.1 17 20 1028.5 0 10.6 20.8 25.7 66.4 49.2 165.3
07/05 23:40 10.2 45 4.28 -1.2 20 22 1028.5 0 10.5 20.7 25.5 65.9 48.7 163.3
07/05 23:30 10.1 45 4.26 -1.3 19 24 1028.5 0 10.5 20.7 25.4 65.8 48.5 162.6
07/05 23:20 10.2 45 4.28 -1.2 17 20 1028.5 0 10.5 20.7 25.5 65.9 48.7 163.3
07/05 23:10 10.2 45 4.28 -1.2 20 24 1028.6 0 10.5 20.8 25.5 65.9 48.7 163.3
07/05 23:00 10 46 4.32 -1.1 15 20 1028.6 0 10.6 20.9 25.7 66.4 49.3 165.3
07/05 22:50 10 46 4.32 -1.1 15 17 1028.7 0 10.6 20.9 25.7 66.4 49.3 165.3
07/05 22:40 10.1 46 4.35 -1 17 19 1028.7 0 10.7 20.9 25.8 66.6 49.5 166.4
07/05 22:30 10.2 46 4.38 -0.9 17 20 1028.8 0 10.8 20.9 25.8 66.9 49.8 167.5
07/05 22:20 10.2 46 4.38 -0.9 17 19 1028.7 0 10.8 20.9 25.8 66.8 49.8 167.4
07/05 22:10 10.6 44 4.3 -1.1 17 20 1028.7 0 10.6 20.7 25.4 65.8 48.7 163.3
07/05 22:00 10.8 43 4.25 -1.3 19 24 1028.6 0 10.5 20.6 25.2 65.1 47.9 160.8
07/05 21:50 11.1 41 4.13 -1.6 22 28 1028.6 0 10.2 20.3 24.7 63.7 46.4 155.3
07/05 21:40 11.1 41 4.13 -1.6 22 26 1028.5 0 10.2 20.3 24.7 63.7 46.4 155.3
07/05 21:30 11.2 40 4.06 -1.9 20 28 1028.4 0 10.0 20.2 24.4 63.0 45.5 152.3
07/05 21:20 11.4 39 4 -2 20 28 1028.4 0 9.9 20.1 24.1 62.3 44.7 149.5
07/05 21:10 11.6 39 4.05 -1.9 20 24 1028.2 0 10.0 20.1 24.2 62.6 45.2 151.1
07/05 21:00 11.6 39 4.05 -1.9 20 28 1028.1 0 10.0 20.1 24.2 62.6 45.1 151.1
07/05 20:50 11.6 39 4.05 -1.9 17 20 1028 0 10.0 20.1 24.2 62.6 45.1 151.1
07/05 20:40 11.9 38 4.03 -1.9 22 24 1027.9 0 10.0 20.0 24.1 62.1 44.7 149.7
07/05 20:30 12 38 4.05 -1.9 22 28 1027.8 0 10.0 20.0 24.1 62.3 44.9 150.3
07/05 20:20 12.2 37 3.99 -2 20 22 1027.7 0 9.9 19.9 23.8 61.5 44.1 147.6
07/05 20:10 12.3 38 4.13 -1.6 22 28 1027.7 0 10.2 20.0 24.3 62.7 45.7 153.0
07/05 20:00 11.8 41 4.32 -1 15 20 1027.7 0 10.6 20.4 25.1 64.9 48.1 161.6
07/05 19:50 12.2 40 4.32 -1 15 17 1027.6 0 10.6 20.3 25.0 64.6 47.9 160.8

Last Refresh: 08-May-2026 12:09:36

Bureau of Meteorology